Time;durP1;ratioP1;P1;durP2;ratioP2;P2;SDS_P1;SDS_P2;PMS_P1;PMS_P2;Temp;Humidity;BMP_temperature;BMP_pressure;BME280_temperature;BME280_humidity;BME280_pressure;Samples;Min_cycle;Max_cycle;Signal;HPM_P1;HPM_P2
2022/08/20 10:31:47;;;;;;;3.80;1.08;;;26.80;94.60;;;;;;5099908;27;20146;-55
2022/08/20 10:34:13;;;;;;;7.20;0.98;;;27.50;99.90;;;;;;5108202;28;20036;-58
2022/08/20 10:36:41;;;;;;;7.50;1.33;;;28.20;96.40;;;;;;5101495;28;20606;-56
2022/08/20 10:39:07;;;;;;;6.10;0.90;;;28.60;97.80;;;;;;5100516;28;20055;-55
2022/08/20 10:41:33;;;;;;;4.40;0.95;;;28.20;97.40;;;;;;5103812;28;20036;-55
2022/08/20 10:43:58;;;;;;;2.80;1.35;;;28.50;96.60;;;;;;5099619;28;20649;-55
2022/08/20 10:46:24;;;;;;;4.05;0.80;;;28.10;95.00;;;;;;5103253;28;20048;-55
2022/08/20 10:48:50;;;;;;;6.07;0.70;;;27.60;93.80;;;;;;5100260;28;20052;-56
2022/08/20 10:51:15;;;;;;;2.35;0.77;;;27.10;94.30;;;;;;5103068;28;20066;-56
2022/08/20 10:53:41;;;;;;;3.85;1.00;;;27.00;95.70;;;;;;5092668;28;20087;-55
2022/08/20 10:56:07;;;;;;;2.35;0.90;;;27.80;96.10;;;;;;5094890;28;20497;-55
2022/08/20 10:58:32;;;;;;;3.58;1.10;;;27.50;95.80;;;;;;5091551;28;20052;-56
2022/08/20 11:00:58;;;;;;;2.85;0.55;;;27.60;95.30;;;;;;5101734;28;20408;-55
2022/08/20 11:03:24;;;;;;;4.85;1.00;;;28.30;95.80;;;;;;5097791;28;20056;-56
2022/08/20 11:05:49;;;;;;;4.75;1.58;;;28.90;95.40;;;;;;5090818;28;20047;-57
2022/08/20 11:08:15;;;;;;;1.95;0.80;;;28.50;92.60;;;;;;5102624;28;20048;-56
2022/08/20 11:10:41;;;;;;;4.28;1.27;;;27.80;94.10;;;;;;5102661;28;20044;-57
2022/08/20 11:13:07;;;;;;;3.92;1.05;;;27.80;92.90;;;;;;5103025;28;20058;-57
2022/08/20 11:15:36;;;;;;;3.45;0.85;;;27.50;92.60;;;;;;5101829;28;20044;-56
2022/08/20 11:18:03;;;;;;;6.78;1.85;;;27.60;91.50;;;;;;5100027;28;20055;-60
2022/08/20 11:20:30;;;;;;;2.83;0.90;;;27.50;93.40;;;;;;5094866;28;20121;-59
2022/08/20 11:22:56;;;;;;;1.58;0.98;;;27.50;93.00;;;;;;5092157;28;20071;-60
2022/08/20 11:25:23;;;;;;;5.40;1.00;;;28.10;93.90;;;;;;5099088;28;20047;-61
2022/08/20 11:27:50;;;;;;;3.08;1.13;;;29.00;93.40;;;;;;5102974;28;20043;-56
2022/08/20 11:30:26;;;;;;;5.20;1.30;;;31.10;91.60;;;;;;5101946;28;20060;-56
2022/08/20 11:32:52;;;;;;;3.63;1.27;;;29.70;91.30;;;;;;5099915;28;20044;-56
2022/08/20 11:35:20;;;;;;;3.30;1.15;;;30.30;91.50;;;;;;5104488;28;20207;-56
2022/08/20 11:37:46;;;;;;;3.33;1.25;;;33.00;90.80;;;;;;5096794;28;20047;-58
2022/08/20 11:40:12;;;;;;;3.10;1.25;;;33.50;86.30;;;;;;5100756;28;20056;-56
2022/08/20 11:42:38;;;;;;;5.78;1.73;;;31.70;90.20;;;;;;5087660;28;20040;-58
2022/08/20 11:45:05;;;;;;;3.83;1.13;;;29.90;88.80;;;;;;5085320;28;20044;-56
2022/08/20 11:47:32;;;;;;;6.75;2.50;;;30.50;91.60;;;;;;5082573;28;20595;-56
2022/08/20 11:49:59;;;;;;;3.42;1.27;;;29.40;91.20;;;;;;5082458;28;20063;-57
2022/08/20 11:52:26;;;;;;;5.22;2.13;;;28.60;92.00;;;;;;5087624;28;20097;-61
2022/08/20 11:54:51;;;;;;;6.68;1.75;;;28.10;92.40;;;;;;5088447;28;20375;-57
2022/08/20 11:57:22;;;;;;;4.47;1.90;;;28.10;92.40;;;;;;5085384;28;20051;-55
2022/08/20 11:59:50;;;;;;;2.58;1.10;;;29.10;91.50;;;;;;5087478;28;20124;-59
2022/08/20 12:02:16;;;;;;;6.43;1.48;;;29.10;91.10;;;;;;5087096;28;20121;-61
2022/08/20 12:04:42;;;;;;;2.03;0.70;;;30.00;90.40;;;;;;5088339;28;20048;-61
2022/08/20 12:07:13;;;;;;;3.92;1.30;;;29.50;90.40;;;;;;5084278;28;20040;-59
2022/08/20 12:09:40;;;;;;;6.60;1.52;;;28.60;90.00;;;;;;5085052;28;20054;-59
2022/08/20 12:12:06;;;;;;;5.93;1.73;;;28.10;91.30;;;;;;5078117;28;20130;-58
2022/08/20 12:14:32;;;;;;;4.15;1.13;;;27.80;91.40;;;;;;5083248;28;20603;-57
2022/08/20 12:17:06;;;;;;;4.45;1.20;;;27.00;92.10;;;;;;5084562;28;20040;-58
2022/08/20 12:19:31;;;;;;;7.70;2.35;;;25.90;92.80;;;;;;5084890;28;20107;-59
2022/08/20 12:21:57;;;;;;;4.32;1.55;;;25.90;93.20;;;;;;5077983;28;20505;-56
2022/08/20 12:24:22;;;;;;;3.13;1.50;;;27.00;93.20;;;;;;5085955;28;20603;-58
2022/08/20 12:26:48;;;;;;;3.78;1.10;;;29.90;91.50;;;;;;5087238;28;20055;-59
2022/08/20 12:29:14;;;;;;;3.35;0.80;;;29.80;90.80;;;;;;5087380;28;20067;-58
2022/08/20 12:31:39;;;;;;;5.63;1.63;;;29.10;91.10;;;;;;5086716;28;20056;-57
2022/08/20 12:34:05;;;;;;;5.57;1.42;;;28.70;91.30;;;;;;5083155;28;20485;-57
2022/08/20 12:36:31;;;;;;;9.77;1.75;;;28.20;91.10;;;;;;5085734;28;20098;-57
2022/08/20 12:38:56;;;;;;;3.08;1.13;;;27.40;91.70;;;;;;5086829;28;20047;-59
2022/08/20 12:41:22;;;;;;;4.25;1.00;;;27.50;91.90;;;;;;5072630;28;20504;-58
2022/08/20 12:43:48;;;;;;;2.75;0.93;;;28.00;91.70;;;;;;5076313;28;20205;-58
2022/08/20 12:46:13;;;;;;;5.75;2.45;;;27.90;91.30;;;;;;5077828;28;20806;-56
2022/08/20 12:48:39;;;;;;;4.80;1.27;;;28.00;90.40;;;;;;5081081;28;20048;-56
2022/08/20 12:51:05;;;;;;;4.35;1.42;;;28.20;91.30;;;;;;5083518;28;20056;-56
2022/08/20 12:53:30;;;;;;;5.55;1.63;;;28.50;90.80;;;;;;5086435;28;20044;-58
2022/08/20 12:55:56;;;;;;;4.45;1.38;;;27.30;90.90;;;;;;5085100;28;20127;-57
2022/08/20 12:58:22;;;;;;;5.25;1.50;;;27.10;91.10;;;;;;5086672;28;20075;-56
2022/08/20 13:00:47;;;;;;;2.67;1.23;;;26.80;91.50;;;;;;5079245;28;20036;-56
2022/08/20 13:03:13;;;;;;;6.07;1.58;;;27.20;91.80;;;;;;5079028;28;20499;-57
2022/08/20 13:05:39;;;;;;;3.33;1.63;;;30.60;90.90;;;;;;5082599;28;20071;-56
2022/08/20 13:08:08;;;;;;;3.78;1.45;;;33.30;88.70;;;;;;5078632;28;20039;-57
2022/08/20 13:10:36;;;;;;;4.97;2.13;;;33.40;85.70;;;;;;5077089;28;20047;-57
2022/08/20 13:13:03;;;;;;;2.40;1.10;;;32.90;85.90;;;;;;5086199;28;20047;-56
2022/08/20 13:15:30;;;;;;;4.25;1.40;;;32.00;86.20;;;;;;5082739;28;20044;-56
2022/08/20 13:18:00;;;;;;;6.50;1.23;;;30.90;88.20;;;;;;5082491;28;20044;-56
2022/08/20 13:20:26;;;;;;;5.45;1.55;;;30.30;87.50;;;;;;5083418;28;20060;-56
2022/08/20 13:22:53;;;;;;;4.32;1.38;;;30.10;88.40;;;;;;5083831;28;20035;-56
2022/08/20 13:25:20;;;;;;;3.03;1.33;;;28.90;89.70;;;;;;5080181;28;20055;-57
2022/08/20 13:27:46;;;;;;;4.28;1.60;;;27.90;90.10;;;;;;5075116;28;20040;-58
2022/08/20 13:30:16;;;;;;;4.63;1.40;;;27.70;90.50;;;;;;5085973;28;20064;-59
2022/08/20 13:32:42;;;;;;;2.72;1.05;;;27.60;90.50;;;;;;5086174;28;20051;-58
2022/08/20 13:35:08;;;;;;;2.30;1.27;;;28.30;90.70;;;;;;5083109;28;20515;-59
2022/08/20 13:37:34;;;;;;;5.18;1.65;;;28.00;90.80;;;;;;5085255;28;20048;-56
2022/08/20 13:40:00;;;;;;;7.63;1.80;;;29.20;90.40;;;;;;5084311;28;20568;-57
2022/08/20 13:42:26;;;;;;;4.53;1.95;;;29.20;90.00;;;;;;5085322;28;20086;-56
2022/08/20 13:44:53;;;;;;;2.55;1.23;;;29.50;89.10;;;;;;5085997;28;20098;-57
2022/08/20 13:47:25;;;;;;;4.90;1.50;;;28.70;88.40;;;;;;5085912;28;20054;-56
2022/08/20 13:50:02;;;;;;;3.13;1.40;;;28.10;88.70;;;;;;5084708;28;20054;-57
2022/08/20 13:52:28;;;;;;;5.22;1.60;;;28.10;90.30;;;;;;5085512;28;20056;-56
2022/08/20 13:54:53;;;;;;;3.47;0.98;;;28.30;90.20;;;;;;5082072;28;20565;-56
2022/08/20 13:57:21;;;;;;;2.65;1.52;;;28.40;90.50;;;;;;5085867;28;20054;-56
2022/08/20 14:13:02;;;;;;;6.43;2.35;;;28.30;89.40;;;;;;5088859;27;20547;-55
2022/08/20 14:15:28;;;;;;;9.18;2.50;;;33.00;83.30;;;;;;5096134;28;20107;-55
2022/08/20 14:17:55;;;;;;;5.82;1.25;;;32.60;84.70;;;;;;5101955;28;20047;-56
2022/08/20 14:20:25;;;;;;;4.45;1.20;;;31.60;84.90;;;;;;5101662;28;20129;-57
2022/08/20 14:22:50;;;;;;;3.45;1.38;;;31.00;86.30;;;;;;5105418;28;20384;-57
2022/08/20 14:25:19;;;;;;;6.85;1.63;;;31.50;85.50;;;;;;5102189;28;20482;-57
2022/08/20 14:27:45;;;;;;;6.53;1.67;;;31.50;84.90;;;;;;5101674;28;20044;-56
2022/08/20 14:30:15;;;;;;;5.75;1.58;;;30.00;84.80;;;;;;5100636;28;20096;-55
2022/08/20 14:32:41;;;;;;;2.58;0.98;;;29.70;86.30;;;;;;5099469;28;20039;-57
2022/08/20 14:35:09;;;;;;;9.73;1.80;;;29.20;84.90;;;;;;5102610;28;20047;-58
2022/08/20 14:37:37;;;;;;;5.40;1.13;;;28.60;87.50;;;;;;5101019;28;20788;-58
2022/08/20 14:40:08;;;;;;;4.88;1.60;;;28.30;88.60;;;;;;5101380;28;20072;-59
2022/08/20 14:42:34;;;;;;;3.60;1.92;;;29.10;86.50;;;;;;5080735;28;20135;-56
2022/08/20 14:45:01;;;;;;;3.13;1.30;;;31.90;87.20;;;;;;5080417;28;20044;-57
2022/08/20 14:47:34;;;;;;;5.93;1.67;;;33.40;83.20;;;;;;5100385;28;20146;-57
2022/08/20 14:50:05;;;;;;;;;;;32.40;84.30;;;;;;5100744;28;20048;-58
2022/08/20 14:52:35;;;;;;;3.65;0.90;;;35.20;79.50;;;;;;5090000;28;20305;-57
2022/08/20 14:55:05;;;;;;;7.95;1.60;;;32.80;78.50;;;;;;5100366;28;20051;-57
2022/08/20 14:57:30;;;;;;;2.75;1.27;;;34.30;82.60;;;;;;5098005;28;20481;-58
2022/08/20 14:59:56;;;;;;;7.25;1.73;;;33.50;81.00;;;;;;5100674;28;20047;-59
2022/08/20 15:02:23;;;;;;;7.47;1.35;;;31.70;81.70;;;;;;5085072;28;20047;-59
2022/08/20 15:04:49;;;;;;;2.45;1.00;;;31.00;82.60;;;;;;5096308;28;20081;-58
2022/08/20 15:07:22;;;;;;;5.53;1.50;;;30.80;83.60;;;;;;5082310;28;20047;-60
2022/08/20 15:09:48;;;;;;;2.28;1.17;;;30.30;83.80;;;;;;5087641;28;20489;-59
2022/08/20 15:12:13;;;;;;;3.63;1.48;;;30.10;84.00;;;;;;5079793;28;20131;-58
2022/08/20 15:14:39;;;;;;;3.15;2.00;;;29.00;82.80;;;;;;5069747;28;20126;-59
2022/08/20 15:17:05;;;;;;;3.85;1.50;;;28.20;85.30;;;;;;5071237;28;20165;-59
2022/08/20 15:19:31;;;;;;;3.05;1.55;;;27.30;86.70;;;;;;5073874;28;20083;-59
2022/08/20 15:21:56;;;;;;;4.47;1.55;;;27.00;87.00;;;;;;5066674;28;20040;-59
2022/08/20 15:24:22;;;;;;;4.72;1.65;;;27.00;86.20;;;;;;5068173;28;20586;-58
2022/08/20 15:26:48;;;;;;;9.98;1.98;;;26.90;87.20;;;;;;5065395;28;20059;-56
2022/08/20 15:29:15;;;;;;;7.28;2.17;;;26.80;87.60;;;;;;5066251;28;20445;-57
2022/08/20 15:31:41;;;;;;;6.00;1.77;;;26.90;88.30;;;;;;5067906;28;20519;-56
2022/08/20 15:34:07;;;;;;;5.30;1.95;;;27.20;88.50;;;;;;5069266;28;20123;-58
2022/08/20 15:36:32;;;;;;;2.65;0.90;;;27.10;87.60;;;;;;5075057;28;20394;-56
2022/08/20 15:38:58;;;;;;;6.20;1.63;;;27.20;87.60;;;;;;5080809;28;20036;-56
2022/08/20 15:41:29;;;;;;;3.90;1.50;;;26.70;87.50;;;;;;5076313;28;20461;-58
2022/08/20 15:43:56;;;;;;;3.20;1.45;;;26.90;89.10;;;;;;5069719;28;20168;-56
2022/08/20 15:46:22;;;;;;;8.38;2.55;;;26.80;88.40;;;;;;5076669;28;20048;-56
2022/08/20 15:48:48;;;;;;;6.07;1.67;;;26.70;89.60;;;;;;5069957;28;20047;-56
2022/08/20 15:51:29;;;;;;;3.95;1.30;;;27.30;89.90;;;;;;5083530;28;20074;-56
2022/08/20 15:54:07;;;;;;;4.65;2.17;;;27.30;90.00;;;;;;5085251;28;20048;-58
2022/08/20 15:57:00;;;;;;;3.75;1.10;;;26.90;89.70;;;;;;5077182;28;20087;-57
2022/08/20 15:59:38;;;;;;;13.65;2.03;;;26.50;89.30;;;;;;5069653;28;20055;-61
2022/08/20 16:02:15;;;;;;;8.40;1.85;;;26.10;90.00;;;;;;5073969;28;20044;-56
2022/08/20 16:05:07;;;;;;;6.55;1.65;;;26.20;90.20;;;;;;5066981;28;20044;-56
2022/08/20 16:07:53;;;;;;;5.30;2.15;;;26.20;90.10;;;;;;5050474;28;20517;-56
2022/08/20 16:10:42;;;;;;;3.95;1.17;;;26.10;89.20;;;;;;5073831;28;20123;-59
2022/08/20 16:13:35;;;;;;;4.60;1.63;;;26.00;88.90;;;;;;5031226;28;20430;-58
2022/08/20 16:16:03;;;;;;;4.00;1.23;;;26.10;90.50;;;;;;5074149;28;20290;-57
2022/08/20 16:18:35;;;;;;;5.60;1.27;;;26.10;90.80;;;;;;5069719;28;20286;-59
2022/08/20 16:21:07;;;;;;;4.80;1.58;;;25.80;90.00;;;;;;5071985;28;20050;-57
2022/08/20 16:23:36;;;;;;;5.15;1.63;;;26.10;91.00;;;;;;5072485;28;20048;-60
2022/08/20 16:26:21;;;;;;;2.72;1.73;;;26.20;90.90;;;;;;5071423;28;20049;-58
2022/08/20 16:29:08;;;;;;;5.70;1.83;;;25.80;91.10;;;;;;5072484;28;20048;-60
2022/08/20 16:32:12;;;;;;;3.22;1.13;;;26.00;91.50;;;;;;5072409;28;20051;-62
2022/08/20 16:34:44;;;;;;;3.70;1.27;;;25.70;91.00;;;;;;5072138;28;20486;-56
2022/08/20 16:37:24;;;;;;;6.70;1.77;;;25.70;90.90;;;;;;5069640;28;20044;-57
2022/08/20 16:40:12;;;;;;;2.25;1.33;;;25.30;90.50;;;;;;5068769;28;20053;-56
2022/08/20 16:42:41;;;;;;;10.60;2.65;;;25.10;90.70;;;;;;5073639;28;20059;-58
2022/08/20 16:45:15;;;;;;;8.82;2.22;;;24.90;90.90;;;;;;5069830;28;20494;-56
2022/08/20 16:47:41;;;;;;;3.83;1.67;;;24.80;91.60;;;;;;5080878;28;20061;-60
2022/08/20 16:50:13;;;;;;;3.53;1.45;;;24.80;91.90;;;;;;5078629;28;20040;-55
2022/08/20 16:52:41;;;;;;;6.25;1.38;;;24.60;92.00;;;;;;5085579;28;20071;-57
2022/08/20 16:55:07;;;;;;;4.97;1.13;;;24.50;92.00;;;;;;5075512;28;20588;-55
2022/08/20 16:57:33;;;;;;;4.57;1.02;;;24.60;92.20;;;;;;5085237;28;20163;-56
2022/08/20 17:00:22;;;;;;;5.75;1.75;;;24.60;92.10;;;;;;5084807;28;20044;-55
2022/08/20 17:02:53;;;;;;;4.40;1.50;;;24.70;93.70;;;;;;5085660;28;20058;-58
2022/08/20 17:05:20;;;;;;;4.03;1.67;;;24.80;92.60;;;;;;5084786;28;20051;-60
2022/08/20 17:07:52;;;;;;;3.20;1.23;;;24.70;92.60;;;;;;5083918;28;20398;-56
2022/08/20 17:10:31;;;;;;;6.07;1.13;;;24.70;92.50;;;;;;5085422;28;20040;-55
2022/08/20 17:13:19;;;;;;;8.63;2.22;;;24.60;92.30;;;;;;5075892;28;20055;-57
2022/08/20 17:16:01;;;;;;;5.38;1.48;;;24.20;92.20;;;;;;5072171;28;20507;-56
2022/08/20 17:18:38;;;;;;;5.57;1.63;;;24.10;92.40;;;;;;5065018;28;20456;-56
2022/08/20 17:21:11;;;;;;;4.90;1.13;;;23.90;92.60;;;;;;5079009;28;20469;-56
2022/08/20 17:23:38;;;;;;;6.68;1.50;;;23.70;93.20;;;;;;5073922;28;20141;-55
2022/08/20 17:26:22;;;;;;;6.25;1.80;;;23.70;93.10;;;;;;5065546;28;20170;-55
2022/08/20 17:28:53;;;;;;;5.95;1.67;;;23.50;93.40;;;;;;5082811;28;20550;-57
2022/08/20 17:31:44;;;;;;;8.70;1.77;;;23.30;93.80;;;;;;5073825;28;20521;-58
2022/08/20 17:34:21;;;;;;;3.80;1.95;;;23.30;94.00;;;;;;5074296;28;20453;-57
2022/08/20 17:36:56;;;;;;;7.85;1.75;;;22.90;96.40;;;;;;5077218;28;20062;-55
2022/08/20 17:39:24;;;;;;;3.88;1.50;;;22.80;97.40;;;;;;5071480;28;20044;-56
2022/08/20 17:42:01;;;;;;;8.73;1.75;;;22.70;97.90;;;;;;5073172;28;20139;-59
2022/08/20 17:44:32;;;;;;;5.07;1.85;;;22.60;98.90;;;;;;5080404;28;20116;-58
2022/08/20 17:47:01;;;;;;;6.65;1.80;;;22.50;99.90;;;;;;5082359;28;20400;-58
2022/08/20 17:49:41;;;;;;;4.13;1.83;;;22.30;99.90;;;;;;5084853;28;20059;-56
2022/08/20 17:52:17;;;;;;;4.32;1.83;;;22.40;99.90;;;;;;5084409;28;20075;-55
2022/08/20 17:54:47;;;;;;;5.35;1.63;;;22.30;99.90;;;;;;5085636;28;20044;-56
2022/08/20 17:57:15;;;;;;;10.45;2.55;;;22.30;99.90;;;;;;5085856;28;20044;-58
2022/08/20 17:59:43;;;;;;;5.35;1.85;;;22.40;99.90;;;;;;5085870;28;20355;-55
2022/08/20 18:02:11;;;;;;;7.68;2.20;;;22.50;99.90;;;;;;5081829;28;20627;-55
2022/08/20 18:04:37;;;;;;;3.15;1.48;;;22.40;99.90;;;;;;5081134;28;20082;-56
2022/08/20 18:07:26;;;;;;;4.57;1.30;;;22.40;99.90;;;;;;5071079;28;20119;-58
2022/08/20 18:10:06;;;;;;;3.85;1.67;;;22.40;99.90;;;;;;5080734;28;20040;-56
2022/08/20 18:12:35;;;;;;;6.00;1.63;;;22.40;99.90;;;;;;5079952;28;20056;-55
2022/08/20 18:15:03;;;;;;;4.70;1.80;;;22.20;99.90;;;;;;5085531;28;20489;-56
2022/08/20 18:17:50;;;;;;;4.50;2.25;;;22.20;99.90;;;;;;5085272;28;20087;-56
2022/08/20 18:20:42;;;;;;;8.77;1.85;;;22.30;99.90;;;;;;5084839;28;20057;-56
2022/08/20 18:23:30;;;;;;;9.85;1.98;;;22.20;99.90;;;;;;5063331;28;20072;-56
2022/08/20 18:26:03;;;;;;;9.75;2.50;;;22.00;99.90;;;;;;5071770;28;20115;-56
2022/08/20 18:28:38;;;;;;;5.50;2.42;;;21.80;99.90;;;;;;5063456;28;20122;-56
2022/08/20 18:31:07;;;;;;;6.45;2.17;;;21.60;99.90;;;;;;5072073;28;20588;-57
2022/08/20 18:33:37;;;;;;;11.73;2.47;;;21.50;99.90;;;;;;5080718;28;20401;-56
2022/08/20 18:36:18;;;;;;;5.85;2.20;;;21.40;99.90;;;;;;5078531;28;20048;-58
2022/08/20 18:39:10;;;;;;;5.22;2.22;;;21.30;99.90;;;;;;5080280;28;20059;-58
2022/08/20 18:41:42;;;;;;;6.32;2.15;;;21.20;99.90;;;;;;5084960;28;20052;-57
2022/08/20 18:44:11;;;;;;;5.15;2.00;;;21.10;99.90;;;;;;5084777;28;20101;-58
2022/08/20 18:46:59;;;;;;;5.40;2.30;;;21.00;99.90;;;;;;5067446;28;20054;-59
2022/08/20 18:49:28;;;;;;;7.55;2.22;;;21.00;99.90;;;;;;5078852;28;20580;-59
2022/08/20 18:51:54;;;;;;;4.00;2.15;;;20.90;99.90;;;;;;5074502;28;20062;-59
2022/08/20 18:54:27;;;;;;;9.98;2.03;;;20.80;99.90;;;;;;5072692;28;20048;-57
2022/08/20 18:57:25;;;;;;;5.53;1.55;;;20.80;99.90;;;;;;5074864;28;20131;-56
2022/08/20 19:00:00;;;;;;;7.07;2.65;;;20.70;99.90;;;;;;5066260;28;20113;-57
2022/08/20 19:02:32;;;;;;;5.68;2.20;;;20.60;99.90;;;;;;5070711;28;20524;-60
2022/08/20 19:05:04;;;;;;;6.13;2.30;;;20.50;99.90;;;;;;5074654;28;20433;-57
2022/08/20 19:07:39;;;;;;;3.65;2.05;;;20.40;99.90;;;;;;5072527;28;20187;-57
2022/08/20 19:10:38;;;;;;;7.43;2.47;;;20.30;99.90;;;;;;5076375;28;20045;-57
2022/08/20 19:13:41;;;;;;;6.68;2.50;;;20.20;99.90;;;;;;5087801;28;20765;-56
2022/08/20 19:16:13;;;;;;;7.10;2.03;;;20.20;99.90;;;;;;5087038;28;20533;-55
2022/08/20 19:18:59;;;;;;;3.33;1.50;;;20.00;99.90;;;;;;5075379;28;20051;-56
2022/08/20 19:21:31;;;;;;;9.10;3.03;;;20.00;99.90;;;;;;5072321;28;20067;-55
2022/08/20 19:24:02;;;;;;;9.63;2.28;;;20.00;99.90;;;;;;5082573;28;20541;-57
2022/08/20 19:26:30;;;;;;;4.38;2.88;;;19.90;99.90;;;;;;5086979;28;20054;-56
2022/08/20 19:29:09;;;;;;;5.50;1.92;;;19.90;99.90;;;;;;5071862;28;20596;-56
2022/08/20 19:31:36;;;;;;;4.13;1.92;;;19.80;99.90;;;;;;5073567;28;20127;-56
2022/08/20 19:34:19;;;;;;;8.25;1.73;;;19.80;99.90;;;;;;5072487;28;20083;-57
2022/08/20 19:36:51;;;;;;;5.27;2.17;;;19.70;99.90;;;;;;5069269;28;20053;-59
2022/08/20 19:39:20;;;;;;;8.68;1.92;;;19.60;99.90;;;;;;5076883;28;20056;-57
2022/08/20 19:42:02;;;;;;;7.82;2.58;;;19.60;99.90;;;;;;5069440;28;20067;-58
2022/08/20 19:44:33;;;;;;;5.78;2.30;;;19.50;99.90;;;;;;5082141;28;20131;-58
2022/08/20 19:47:01;;;;;;;4.63;1.60;;;19.50;99.90;;;;;;5071387;28;20047;-58
2022/08/20 19:49:26;;;;;;;5.55;2.25;;;19.40;99.90;;;;;;5076461;28;20829;-58
2022/08/20 19:52:01;;;;;;;7.90;3.00;;;19.40;99.90;;;;;;5082536;28;20097;-58
2022/08/20 19:54:28;;;;;;;7.38;2.15;;;19.30;99.90;;;;;;5071167;28;20502;-56
2022/08/20 19:57:08;;;;;;;7.28;2.22;;;19.20;99.90;;;;;;5085120;28;20048;-56
2022/08/20 19:59:34;;;;;;;5.57;2.45;;;19.20;99.90;;;;;;5086137;28;20477;-56
2022/08/20 20:02:03;;;;;;;4.22;1.80;;;19.20;99.90;;;;;;5079668;28;20129;-56
2022/08/20 20:04:38;;;;;;;3.53;1.65;;;19.20;99.90;;;;;;5082949;28;20222;-59
2022/08/20 20:07:33;;;;;;;3.97;1.70;;;19.10;99.90;;;;;;5074007;28;20078;-58
2022/08/20 20:09:59;;;;;;;4.43;1.70;;;19.00;99.90;;;;;;5067827;28;20084;-59
2022/08/20 20:12:24;;;;;;;2.88;1.60;;;19.00;99.90;;;;;;5082789;28;20103;-56
2022/08/20 20:14:52;;;;;;;6.97;2.67;;;19.00;99.90;;;;;;5087138;28;20084;-56
2022/08/20 20:17:27;;;;;;;2.65;1.63;;;19.00;99.90;;;;;;5085423;28;20493;-56
2022/08/20 20:20:21;;;;;;;9.70;2.83;;;18.90;99.90;;;;;;5080871;28;20040;-56
2022/08/20 20:22:56;;;;;;;3.83;2.38;;;18.80;99.90;;;;;;5084194;28;20094;-60
2022/08/20 20:25:21;;;;;;;4.63;2.25;;;18.80;99.90;;;;;;5076992;28;20040;-57
2022/08/20 20:27:51;;;;;;;4.25;2.40;;;18.70;99.90;;;;;;5087164;28;20113;-57
2022/08/20 20:30:27;;;;;;;3.50;1.80;;;18.60;99.90;;;;;;5085373;28;20051;-59
2022/08/20 20:32:55;;;;;;;4.53;1.80;;;18.50;99.90;;;;;;5086685;28;20036;-56
2022/08/20 20:35:30;;;;;;;5.05;2.13;;;18.50;99.90;;;;;;5085484;28;20048;-55
2022/08/20 20:38:05;;;;;;;5.15;2.17;;;18.40;99.90;;;;;;5086690;28;20052;-56
2022/08/20 20:40:41;;;;;;;3.65;2.30;;;18.40;99.90;;;;;;5081040;28;20490;-56
2022/08/20 20:43:09;;;;;;;4.35;2.10;;;18.30;99.90;;;;;;5084381;28;20044;-55
2022/08/20 20:45:44;;;;;;;7.00;2.42;;;18.20;99.90;;;;;;5086454;28;20073;-56
2022/08/20 20:48:20;;;;;;;7.65;2.78;;;18.20;99.90;;;;;;5086949;28;20048;-56
2022/08/20 20:50:47;;;;;;;5.10;2.33;;;18.10;99.90;;;;;;5076220;28;20088;-56
2022/08/20 20:53:23;;;;;;;10.38;3.03;;;18.00;99.90;;;;;;5077596;28;20082;-57
2022/08/20 20:55:55;;;;;;;5.50;2.17;;;17.80;99.90;;;;;;5075964;28;20509;-58
2022/08/20 20:58:21;;;;;;;4.22;2.83;;;17.70;99.90;;;;;;5077028;28;20052;-56
2022/08/20 21:00:47;;;;;;;7.05;1.95;;;17.70;99.90;;;;;;5077599;28;20048;-55
2022/08/20 21:03:12;;;;;;;5.30;2.03;;;17.70;99.90;;;;;;5078317;28;20036;-55
2022/08/20 21:05:39;;;;;;;5.38;2.15;;;17.70;99.90;;;;;;5075032;28;20045;-59
2022/08/20 21:08:07;;;;;;;8.93;1.88;;;17.70;99.90;;;;;;5076346;28;20167;-58
2022/08/20 21:10:36;;;;;;;4.13;1.90;;;17.70;99.90;;;;;;5075253;28;20044;-55
2022/08/20 21:13:03;;;;;;;4.43;2.20;;;17.60;99.90;;;;;;5075999;28;20056;-56
2022/08/20 21:15:30;;;;;;;7.85;2.70;;;17.60;99.90;;;;;;5081520;28;20091;-55
2022/08/20 21:18:01;;;;;;;4.90;2.15;;;17.60;99.90;;;;;;5083936;28;20085;-55
2022/08/20 21:20:28;;;;;;;5.85;2.15;;;17.60;99.90;;;;;;5085765;28;20566;-55
2022/08/20 21:22:57;;;;;;;5.55;2.33;;;17.50;99.90;;;;;;5085784;28;20485;-56
2022/08/20 21:25:27;;;;;;;6.82;2.45;;;17.50;99.90;;;;;;5084649;28;20496;-57
2022/08/20 21:27:53;;;;;;;2.78;1.70;;;17.50;99.90;;;;;;5085993;28;20215;-58
2022/08/20 21:30:21;;;;;;;3.33;2.17;;;17.40;99.90;;;;;;5086056;28;20079;-56
2022/08/20 21:32:47;;;;;;;3.08;1.90;;;17.40;99.90;;;;;;5085808;28;20052;-58
2022/08/20 21:35:14;;;;;;;3.85;1.80;;;17.30;99.90;;;;;;5087257;28;20072;-57
2022/08/20 21:37:40;;;;;;;3.63;1.90;;;17.30;99.90;;;;;;5086116;28;20101;-55
2022/08/20 21:40:07;;;;;;;4.57;2.20;;;17.30;99.90;;;;;;5084797;28;20051;-58
2022/08/20 21:42:34;;;;;;;4.05;1.90;;;17.20;99.90;;;;;;5083970;28;20182;-57
2022/08/20 21:45:00;;;;;;;6.85;1.88;;;17.20;99.90;;;;;;5060845;28;20080;-57
2022/08/20 21:47:26;;;;;;;5.10;1.95;;;17.10;99.90;;;;;;5085645;28;20047;-58
2022/08/20 21:49:52;;;;;;;3.72;1.80;;;17.10;99.90;;;;;;5086017;28;20087;-57
2022/08/20 21:52:17;;;;;;;2.28;1.88;;;17.10;99.90;;;;;;5086043;28;20048;-55
2022/08/20 21:54:43;;;;;;;4.00;2.78;;;17.00;99.90;;;;;;5084469;28;20051;-55
2022/08/20 21:57:20;;;;;;;4.63;2.70;;;17.00;99.90;;;;;;5067725;28;20051;-55
2022/08/20 21:59:47;;;;;;;4.40;2.42;;;17.00;99.90;;;;;;5085195;28;20112;-55
2022/08/20 22:02:14;;;;;;;7.40;2.75;;;16.80;99.90;;;;;;5085199;28;20162;-55
2022/08/20 22:04:40;;;;;;;6.50;3.42;;;16.70;99.90;;;;;;5085275;28;20079;-57
2022/08/20 22:07:05;;;;;;;4.20;2.90;;;16.60;99.90;;;;;;5083877;28;20068;-55
2022/08/20 22:09:31;;;;;;;5.22;2.28;;;16.50;99.90;;;;;;5083118;28;20092;-56
2022/08/20 22:11:59;;;;;;;7.78;3.38;;;16.40;99.90;;;;;;5075983;28;20064;-55
2022/08/20 22:14:25;;;;;;;6.20;2.40;;;16.40;99.90;;;;;;5086132;28;20393;-55
2022/08/20 22:16:51;;;;;;;5.45;2.13;;;16.30;99.90;;;;;;5085243;28;20081;-55
2022/08/20 22:19:17;;;;;;;5.60;2.60;;;16.40;99.90;;;;;;5085130;28;20118;-55
2022/08/20 22:21:43;;;;;;;7.60;3.25;;;16.40;99.90;;;;;;5085218;28;20485;-55
2022/08/20 22:24:10;;;;;;;6.45;2.92;;;16.40;99.90;;;;;;5084698;28;20402;-55
2022/08/20 22:26:38;;;;;;;5.70;2.90;;;16.40;99.90;;;;;;5085235;28;20532;-55
2022/08/20 22:29:05;;;;;;;5.20;2.72;;;16.30;99.90;;;;;;5087671;28;20129;-55
2022/08/20 22:31:35;;;;;;;4.10;2.70;;;16.30;99.90;;;;;;5089222;28;20450;-55
2022/08/20 22:34:01;;;;;;;6.10;2.90;;;16.40;99.90;;;;;;5089439;28;20638;-55
2022/08/20 22:36:27;;;;;;;6.03;2.72;;;16.40;99.90;;;;;;5090677;28;20501;-55
2022/08/20 22:38:54;;;;;;;6.35;3.03;;;16.40;99.90;;;;;;5088492;28;20591;-55
2022/08/20 22:41:21;;;;;;;9.07;3.15;;;16.40;99.90;;;;;;5085822;28;20055;-55
2022/08/20 22:43:46;;;;;;;4.85;2.78;;;16.40;99.90;;;;;;5078181;28;20417;-56
2022/08/20 22:46:13;;;;;;;5.28;3.20;;;16.30;99.90;;;;;;5089377;28;20052;-55
2022/08/20 22:48:41;;;;;;;4.70;2.53;;;16.00;99.90;;;;;;5088757;28;20044;-55
2022/08/20 22:51:07;;;;;;;6.45;2.72;;;16.20;99.90;;;;;;5088803;28;20044;-56
2022/08/20 22:53:33;;;;;;;5.70;3.15;;;16.20;99.90;;;;;;5085195;28;20422;-56
2022/08/20 22:55:58;;;;;;;12.45;3.45;;;16.20;99.90;;;;;;5079670;28;20044;-55
2022/08/20 22:58:24;;;;;;;5.53;2.58;;;16.20;99.90;;;;;;5089813;28;20539;-55
2022/08/20 23:00:52;;;;;;;5.82;2.92;;;16.10;99.90;;;;;;5089704;28;20047;-55
2022/08/20 23:03:18;;;;;;;4.82;3.15;;;16.10;99.90;;;;;;5089847;28;20100;-57
2022/08/20 23:05:46;;;;;;;7.93;3.25;;;16.10;99.90;;;;;;5089364;28;20051;-55
2022/08/20 23:08:12;;;;;;;6.47;3.33;;;16.10;99.90;;;;;;5089115;28;20047;-56
2022/08/20 23:10:38;;;;;;;5.88;3.08;;;16.00;99.90;;;;;;5087962;28;20478;-56
2022/08/20 23:13:05;;;;;;;4.63;2.72;;;16.10;99.90;;;;;;5089367;28;20087;-58
2022/08/20 23:15:35;;;;;;;9.05;3.17;;;16.00;99.90;;;;;;5089632;28;20056;-58
2022/08/20 23:18:08;;;;;;;8.82;3.83;;;16.00;99.90;;;;;;5089380;28;20048;-59
2022/08/20 23:20:34;;;;;;;6.07;2.33;;;16.00;99.90;;;;;;5089342;28;20400;-58
2022/08/20 23:22:59;;;;;;;6.28;2.97;;;16.00;99.90;;;;;;5085945;28;20048;-57
2022/08/20 23:25:26;;;;;;;10.52;3.58;;;16.00;99.90;;;;;;5075728;28;20044;-58
2022/08/20 23:27:54;;;;;;;6.50;2.83;;;15.90;99.90;;;;;;5089409;28;20343;-56
2022/08/20 23:30:20;;;;;;;10.10;3.58;;;15.90;99.90;;;;;;5089586;28;20452;-55
2022/08/20 23:32:46;;;;;;;5.88;2.60;;;15.80;99.90;;;;;;5090545;28;20040;-55
2022/08/20 23:35:12;;;;;;;8.63;3.63;;;15.80;99.90;;;;;;5092566;28;20056;-58
2022/08/20 23:37:45;;;;;;;6.75;3.10;;;15.80;99.90;;;;;;5089365;28;20087;-58
2022/08/20 23:40:11;;;;;;;3.70;2.55;;;15.70;99.90;;;;;;5091324;28;20070;-58
2022/08/20 23:42:37;;;;;;;9.73;2.42;;;15.70;99.90;;;;;;5076891;28;20052;-59
2022/08/20 23:45:04;;;;;;;5.05;2.50;;;15.70;99.90;;;;;;5090892;28;20093;-55
2022/08/20 23:47:31;;;;;;;4.20;2.47;;;15.70;99.90;;;;;;5091224;28;20086;-59